Time;durP1;ratioP1;P1;durP2;ratioP2;P2;SDS_P1;SDS_P2;PMS_P1;PMS_P2;Temp;Humidity;BMP_temperature;BMP_pressure;BME280_temperature;BME280_humidity;BME280_pressure;Samples;Min_cycle;Max_cycle;Signal;HPM_P1;HPM_P2
2021/10/05 00:01:22;;;;;;;12.95;8.20;;;16.50;99.90;;;;;;5034142;28;20040;-68
2021/10/05 00:04:27;;;;;;;14.48;8.13;;;16.60;99.90;;;;;;5042063;28;20395;-68
2021/10/05 00:07:31;;;;;;;11.65;6.75;;;16.50;99.90;;;;;;5038187;28;20048;-69
2021/10/05 00:10:35;;;;;;;9.50;6.28;;;16.50;99.90;;;;;;5040567;28;20053;-69
2021/10/05 00:13:40;;;;;;;10.57;6.18;;;16.50;99.90;;;;;;5041044;28;20414;-69
2021/10/05 00:16:44;;;;;;;10.20;5.72;;;16.60;99.90;;;;;;5047724;28;20040;-70
2021/10/05 00:19:49;;;;;;;8.88;5.22;;;16.70;99.90;;;;;;5049127;28;20040;-69
2021/10/05 00:22:53;;;;;;;10.23;4.57;;;16.90;99.90;;;;;;5046958;28;20041;-69
2021/10/05 00:25:57;;;;;;;7.57;4.95;;;17.00;99.90;;;;;;5040917;28;20048;-71
2021/10/05 00:29:02;;;;;;;5.45;4.00;;;17.10;99.90;;;;;;5043533;28;20506;-69
2021/10/05 00:32:06;;;;;;;6.10;4.20;;;17.30;99.90;;;;;;5050616;28;20046;-69
2021/10/05 00:35:10;;;;;;;7.93;4.35;;;17.40;99.90;;;;;;5047548;28;20037;-69
2021/10/05 00:38:14;;;;;;;6.80;4.10;;;17.40;99.90;;;;;;5047269;28;20040;-70
2021/10/05 00:41:18;;;;;;;7.13;3.83;;;17.30;99.90;;;;;;5046566;28;20044;-69
2021/10/05 00:44:30;;;;;;;6.15;3.83;;;17.30;99.90;;;;;;5036062;28;20046;-71
2021/10/05 00:47:34;;;;;;;10.45;4.22;;;17.30;99.90;;;;;;5046630;28;20049;-69
2021/10/05 00:50:38;;;;;;;7.53;4.00;;;17.20;99.90;;;;;;5046051;28;20044;-69
2021/10/05 00:53:42;;;;;;;7.30;3.75;;;17.30;99.90;;;;;;5039686;28;20045;-71
2021/10/05 00:56:46;;;;;;;4.63;3.60;;;17.40;99.90;;;;;;5047330;28;20037;-69
2021/10/05 00:59:50;;;;;;;6.32;3.80;;;17.40;99.90;;;;;;5043611;28;20061;-69
2021/10/05 01:02:55;;;;;;;6.13;3.47;;;17.40;99.90;;;;;;5047277;28;20040;-68
2021/10/05 01:06:00;;;;;;;8.27;4.20;;;17.40;99.90;;;;;;5043032;28;20047;-71
2021/10/05 01:09:03;;;;;;;5.18;3.72;;;17.10;99.90;;;;;;5044788;28;20030;-70
2021/10/05 01:12:08;;;;;;;5.47;3.88;;;17.10;99.90;;;;;;5044775;28;20036;-68
2021/10/05 01:15:13;;;;;;;7.05;3.80;;;17.10;99.90;;;;;;5038994;28;20052;-70
2021/10/05 01:18:17;;;;;;;9.55;3.70;;;17.20;99.90;;;;;;5035589;28;20498;-69
2021/10/05 01:21:21;;;;;;;7.43;3.78;;;17.30;99.90;;;;;;5040747;28;20033;-69
2021/10/05 01:24:26;;;;;;;5.65;3.97;;;17.20;99.90;;;;;;5042488;28;20037;-69
2021/10/05 01:27:30;;;;;;;7.47;3.90;;;17.10;99.90;;;;;;5039662;28;20033;-69
2021/10/05 01:30:34;;;;;;;9.75;4.15;;;17.10;99.90;;;;;;5039440;28;20041;-69
2021/10/05 01:33:38;;;;;;;9.13;4.35;;;17.20;99.90;;;;;;5047342;28;20036;-71
2021/10/05 01:36:42;;;;;;;6.65;4.30;;;17.20;99.90;;;;;;5040671;28;20054;-71
2021/10/05 01:39:46;;;;;;;5.70;3.92;;;17.30;99.90;;;;;;5035449;28;20030;-69
2021/10/05 01:42:50;;;;;;;8.93;4.50;;;17.30;99.90;;;;;;5047372;28;20510;-72
2021/10/05 01:45:54;;;;;;;7.78;4.05;;;17.30;99.90;;;;;;5046153;28;20044;-71
2021/10/05 01:48:58;;;;;;;6.97;3.53;;;17.30;99.90;;;;;;5032887;28;20044;-70
2021/10/05 01:52:03;;;;;;;7.07;3.97;;;17.40;99.90;;;;;;5039342;28;20042;-71
2021/10/05 01:55:08;;;;;;;6.30;4.72;;;17.40;99.90;;;;;;5048537;28;20403;-71
2021/10/05 01:58:12;;;;;;;9.48;4.30;;;17.40;99.90;;;;;;5038556;28;20495;-71
2021/10/05 02:01:16;;;;;;;6.05;3.88;;;17.40;99.90;;;;;;5033750;28;20243;-71
2021/10/05 02:04:20;;;;;;;11.43;4.47;;;17.40;99.90;;;;;;5041429;28;20040;-70
2021/10/05 02:07:24;;;;;;;8.57;4.43;;;17.60;99.90;;;;;;5038237;28;20589;-71
2021/10/05 02:10:29;;;;;;;7.63;3.75;;;17.70;99.90;;;;;;5039718;28;20049;-71
2021/10/05 02:13:34;;;;;;;7.70;3.85;;;17.70;99.90;;;;;;5043391;28;20037;-71
2021/10/05 02:16:39;;;;;;;5.78;3.53;;;17.70;99.90;;;;;;5046158;28;20056;-71
2021/10/05 02:19:46;;;;;;;7.75;3.40;;;17.70;99.90;;;;;;5038127;28;20056;-70
2021/10/05 02:22:51;;;;;;;7.32;3.78;;;17.80;99.90;;;;;;5040920;28;20040;-70
2021/10/05 02:25:55;;;;;;;6.88;3.60;;;17.80;99.90;;;;;;5037616;28;20053;-71
2021/10/05 02:29:00;;;;;;;7.60;3.50;;;17.90;99.90;;;;;;5035584;28;20045;-71
2021/10/05 02:32:06;;;;;;;4.95;3.47;;;17.90;99.90;;;;;;5041489;28;20041;-71
2021/10/05 02:35:11;;;;;;;4.90;3.35;;;17.90;99.90;;;;;;5041282;28;20037;-70
2021/10/05 02:38:16;;;;;;;10.57;4.22;;;18.00;99.90;;;;;;5038372;28;20048;-71
2021/10/05 02:41:20;;;;;;;9.38;3.22;;;18.00;99.90;;;;;;5037636;28;20048;-71
2021/10/05 02:44:23;;;;;;;6.22;3.08;;;17.90;99.90;;;;;;5036295;28;20044;-71
2021/10/05 02:47:27;;;;;;;9.30;3.22;;;18.00;99.90;;;;;;5043394;28;20053;-70
2021/10/05 02:50:31;;;;;;;12.00;3.85;;;18.10;99.90;;;;;;5043158;28;20044;-72
2021/10/05 02:53:35;;;;;;;9.38;3.10;;;18.10;99.90;;;;;;5039985;28;20048;-72
2021/10/05 02:56:39;;;;;;;7.97;3.80;;;18.20;99.90;;;;;;5040338;28;20033;-71
2021/10/05 02:59:44;;;;;;;7.22;3.30;;;18.20;99.90;;;;;;5040588;28;20402;-72
2021/10/05 03:02:48;;;;;;;11.82;3.30;;;18.20;99.90;;;;;;5044501;28;20041;-70
2021/10/05 03:05:52;;;;;;;9.02;3.35;;;18.10;99.90;;;;;;5044750;28;20518;-70
2021/10/05 03:08:56;;;;;;;14.40;4.10;;;18.00;99.90;;;;;;5036445;28;20048;-70
2021/10/05 03:12:02;;;;;;;7.97;3.40;;;18.10;99.90;;;;;;5042765;28;20045;-71
2021/10/05 03:15:06;;;;;;;14.02;4.10;;;18.10;99.90;;;;;;5040626;28;20037;-71
2021/10/05 03:18:12;;;;;;;10.73;3.22;;;18.10;99.90;;;;;;5033389;28;20040;-70
2021/10/05 03:21:16;;;;;;;12.50;3.65;;;18.10;99.90;;;;;;5044062;28;20049;-71
2021/10/05 03:24:20;;;;;;;11.73;4.05;;;18.10;99.90;;;;;;5037523;28;20040;-71
2021/10/05 03:27:24;;;;;;;18.58;3.97;;;18.20;99.90;;;;;;5030079;28;20045;-70
2021/10/05 03:30:28;;;;;;;11.27;3.85;;;18.10;99.90;;;;;;5037727;28;20057;-70
2021/10/05 03:33:32;;;;;;;14.95;4.18;;;17.90;99.90;;;;;;5044765;28;20044;-71
2021/10/05 03:36:36;;;;;;;8.32;3.75;;;17.90;99.90;;;;;;5031846;28;20057;-71
2021/10/05 03:39:40;;;;;;;10.50;3.22;;;18.00;99.90;;;;;;5037489;28;20502;-70
2021/10/05 03:42:45;;;;;;;9.90;3.35;;;17.90;99.90;;;;;;5034985;28;20388;-70
2021/10/05 03:45:50;;;;;;;10.23;3.00;;;18.00;99.90;;;;;;5046859;28;20037;-71
2021/10/05 03:48:54;;;;;;;15.20;3.70;;;18.10;99.90;;;;;;5037361;28;20502;-71
2021/10/05 03:51:58;;;;;;;9.65;3.38;;;18.10;99.90;;;;;;5033900;28;20257;-71
2021/10/05 03:55:01;;;;;;;12.45;3.40;;;18.10;99.90;;;;;;5037883;28;20049;-71
2021/10/05 03:58:05;;;;;;;11.52;3.45;;;18.10;99.90;;;;;;5040112;28;20040;-71
2021/10/05 04:01:09;;;;;;;17.73;3.05;;;18.10;99.90;;;;;;5041919;28;20497;-71
2021/10/05 04:04:13;;;;;;;13.18;3.53;;;18.10;99.90;;;;;;5041007;28;20032;-71
2021/10/05 04:07:18;;;;;;;11.20;3.45;;;18.20;99.90;;;;;;5044228;28;20044;-71
2021/10/05 04:10:22;;;;;;;17.70;3.33;;;18.20;99.90;;;;;;5047997;28;20506;-70
2021/10/05 04:13:25;;;;;;;13.07;3.55;;;18.20;99.90;;;;;;5046390;28;20083;-72
2021/10/05 04:16:30;;;;;;;9.27;3.20;;;18.20;99.90;;;;;;5046653;28;20047;-71
2021/10/05 04:19:34;;;;;;;10.52;3.63;;;18.20;99.90;;;;;;5043359;28;20059;-71
2021/10/05 04:22:45;;;;;;;13.32;4.03;;;18.10;99.90;;;;;;5038066;28;20044;-71
2021/10/05 04:25:49;;;;;;;9.18;3.60;;;18.10;99.90;;;;;;5041093;28;20037;-71
2021/10/05 04:28:53;;;;;;;13.02;3.47;;;18.00;99.90;;;;;;5047937;28;20061;-71
2021/10/05 04:32:04;;;;;;;13.50;3.50;;;18.00;99.90;;;;;;5050259;28;20044;-71
2021/10/05 04:35:08;;;;;;;10.45;3.65;;;18.00;99.90;;;;;;5048676;28;20045;-71
2021/10/05 04:38:14;;;;;;;11.60;4.47;;;18.00;99.90;;;;;;5038453;28;20045;-71
2021/10/05 04:41:17;;;;;;;18.95;4.28;;;18.00;99.90;;;;;;5043262;28;20044;-70
2021/10/05 04:44:21;;;;;;;10.05;3.63;;;18.00;99.90;;;;;;5045594;28;20047;-70
2021/10/05 04:47:25;;;;;;;14.95;3.85;;;18.10;99.90;;;;;;5042828;28;20435;-69
2021/10/05 04:50:29;;;;;;;15.45;3.83;;;18.00;99.90;;;;;;5046197;28;20043;-70
2021/10/05 04:53:33;;;;;;;14.32;4.00;;;18.00;99.90;;;;;;5040952;28;20047;-70
2021/10/05 04:56:38;;;;;;;12.48;4.22;;;17.90;99.90;;;;;;5040452;28;20036;-69
2021/10/05 04:59:42;;;;;;;7.75;3.60;;;17.70;99.90;;;;;;5036405;28;20049;-70
2021/10/05 05:02:45;;;;;;;14.73;4.63;;;17.30;99.90;;;;;;5032461;28;20044;-69
2021/10/05 05:05:51;;;;;;;14.05;4.82;;;17.10;99.90;;;;;;5045229;28;20048;-72
2021/10/05 05:08:54;;;;;;;11.50;3.90;;;16.90;99.90;;;;;;5042252;28;20395;-72
2021/10/05 05:11:59;;;;;;;14.93;4.18;;;16.80;99.90;;;;;;5045863;28;20052;-71
2021/10/05 05:15:04;;;;;;;12.05;4.05;;;16.70;99.90;;;;;;5039810;28;20056;-72
2021/10/05 05:18:13;;;;;;;11.32;3.42;;;16.60;99.90;;;;;;5031426;28;20053;-71
2021/10/05 05:21:18;;;;;;;9.35;2.70;;;16.50;99.90;;;;;;5043872;28;20104;-72
2021/10/05 05:24:22;;;;;;;12.40;3.25;;;16.50;99.90;;;;;;5040532;28;20049;-72
2021/10/05 05:27:26;;;;;;;7.75;2.80;;;16.40;99.90;;;;;;5039649;28;20048;-72
2021/10/05 05:30:30;;;;;;;9.75;3.58;;;16.40;99.90;;;;;;5041689;28;20051;-73
2021/10/05 05:33:34;;;;;;;11.98;3.20;;;16.40;99.90;;;;;;5039826;28;20056;-72
2021/10/05 05:36:38;;;;;;;14.40;3.95;;;16.40;99.90;;;;;;5039222;28;20048;-72
2021/10/05 05:39:43;;;;;;;9.52;3.45;;;16.40;99.90;;;;;;5040804;28;20113;-72
2021/10/05 05:42:47;;;;;;;8.43;2.65;;;16.40;99.90;;;;;;5047603;28;20509;-73
2021/10/05 05:55:23;;;;;;;6.45;1.90;;;16.40;99.90;;;;;;5043088;28;20048;-73
2021/10/05 05:58:27;;;;;;;11.70;2.45;;;16.40;99.90;;;;;;5037775;28;20044;-73
2021/10/05 06:01:31;;;;;;;10.85;2.10;;;16.20;99.90;;;;;;5039088;28;20403;-70
2021/10/05 06:14:11;;;;;;;7.55;2.65;;;15.80;99.90;;;;;;5038346;28;20043;-71
2021/10/05 06:17:16;;;;;;;9.30;2.95;;;15.90;99.90;;;;;;5043822;28;20037;-71
2021/10/05 06:20:24;;;;;;;9.02;2.35;;;15.90;99.90;;;;;;5040297;28;20044;-71
2021/10/05 06:38:29;;;;;;;10.63;2.05;;;16.20;99.90;;;;;;5038540;28;20048;-71
2021/10/05 06:41:33;;;;;;;8.57;1.80;;;16.30;99.90;;;;;;5038420;28;20060;-72
2021/10/05 06:44:38;;;;;;;11.30;2.25;;;16.30;99.90;;;;;;5045925;28;20040;-72
2021/10/05 06:47:43;;;;;;;7.18;2.00;;;16.40;99.90;;;;;;5045889;28;20056;-71
2021/10/05 06:50:47;;;;;;;7.95;2.35;;;16.50;99.90;;;;;;5034643;28;20056;-71
2021/10/05 06:53:52;;;;;;;8.40;2.17;;;16.50;99.90;;;;;;5041871;28;20488;-71
2021/10/05 06:56:56;;;;;;;10.45;1.90;;;16.60;99.90;;;;;;5039138;28;20036;-71
2021/10/05 07:00:01;;;;;;;12.90;2.50;;;16.60;99.90;;;;;;5035304;28;20040;-71
2021/10/05 07:03:05;;;;;;;9.38;2.25;;;16.60;99.90;;;;;;5036236;28;20048;-71
2021/10/05 07:06:09;;;;;;;14.70;2.75;;;16.60;99.90;;;;;;5037208;28;20298;-71
2021/10/05 07:09:12;;;;;;;15.10;2.60;;;16.70;99.90;;;;;;5035320;28;20053;-71
2021/10/05 07:12:16;;;;;;;15.13;2.65;;;16.70;99.90;;;;;;5033578;28;20057;-71
2021/10/05 07:15:21;;;;;;;12.30;2.95;;;16.80;99.90;;;;;;5048431;28;20051;-71
2021/10/05 07:18:25;;;;;;;11.55;2.17;;;16.90;99.90;;;;;;5040834;28;20045;-71
2021/10/05 07:21:29;;;;;;;8.32;2.25;;;16.90;99.90;;;;;;5043171;28;20044;-71
2021/10/05 07:24:33;;;;;;;15.68;3.47;;;17.00;99.90;;;;;;5040923;28;20043;-71
2021/10/05 07:27:38;;;;;;;14.07;2.35;;;17.00;99.90;;;;;;5035158;28;20404;-71
2021/10/05 07:30:43;;;;;;;11.57;3.20;;;17.10;99.90;;;;;;5043905;28;20067;-71
2021/10/05 07:33:48;;;;;;;9.98;2.40;;;17.10;99.90;;;;;;5037767;28;20536;-72
2021/10/05 07:36:52;;;;;;;15.05;2.22;;;17.10;99.90;;;;;;5036572;28;20049;-72
2021/10/05 07:39:57;;;;;;;11.18;2.17;;;17.10;99.90;;;;;;5050436;28;20485;-72
2021/10/05 07:43:02;;;;;;;10.35;2.00;;;17.10;99.90;;;;;;5039565;28;20068;-72
2021/10/05 07:46:06;;;;;;;8.85;1.70;;;17.20;99.90;;;;;;5044809;28;20044;-72
2021/10/05 07:49:10;;;;;;;11.23;2.35;;;17.30;99.90;;;;;;5042594;28;20047;-71
2021/10/05 07:52:14;;;;;;;15.02;3.00;;;17.30;99.90;;;;;;5041407;28;20056;-71
2021/10/05 07:55:18;;;;;;;17.30;2.88;;;17.30;99.90;;;;;;5041562;28;20039;-71
2021/10/05 07:58:22;;;;;;;15.00;3.20;;;17.40;99.90;;;;;;5039072;28;20052;-70
2021/10/05 08:01:26;;;;;;;11.77;2.40;;;17.40;99.90;;;;;;5040751;28;20049;-70
2021/10/05 08:04:30;;;;;;;11.95;2.85;;;17.30;99.90;;;;;;5040117;28;20482;-70
2021/10/05 08:07:34;;;;;;;9.30;2.08;;;17.30;99.90;;;;;;5043365;28;20403;-70
2021/10/05 08:10:41;;;;;;;7.78;1.88;;;17.20;99.90;;;;;;5039175;28;20033;-70
2021/10/05 08:13:47;;;;;;;11.52;2.05;;;16.90;99.90;;;;;;5039250;28;20045;-70
2021/10/05 08:16:55;;;;;;;10.68;1.83;;;16.70;99.90;;;;;;5047993;28;20056;-70
2021/10/05 08:19:59;;;;;;;10.35;1.63;;;16.70;99.90;;;;;;5046058;28;20411;-71
2021/10/05 08:23:04;;;;;;;11.18;2.08;;;16.60;99.90;;;;;;5043926;28;20040;-71
2021/10/05 08:26:08;;;;;;;10.40;2.08;;;16.60;99.90;;;;;;5041310;28;20326;-71
2021/10/05 08:29:12;;;;;;;10.50;2.33;;;16.70;99.90;;;;;;5041717;28;20109;-71
2021/10/05 08:32:16;;;;;;;11.00;1.88;;;16.70;99.90;;;;;;5051505;28;20407;-71
2021/10/05 08:35:21;;;;;;;10.82;2.40;;;16.80;99.90;;;;;;5040245;28;20407;-71
2021/10/05 08:38:24;;;;;;;12.10;2.10;;;16.80;99.90;;;;;;5042421;28;20036;-70
2021/10/05 08:41:30;;;;;;;9.32;2.00;;;17.20;99.90;;;;;;5041374;28;20055;-71
2021/10/05 08:44:34;;;;;;;9.23;2.08;;;17.40;99.90;;;;;;5046657;28;20377;-71
2021/10/05 08:47:39;;;;;;;7.85;2.00;;;17.30;99.90;;;;;;5036312;28;20058;-71
2021/10/05 08:50:43;;;;;;;11.50;2.17;;;17.20;99.90;;;;;;5039792;28;20041;-71
2021/10/05 08:53:47;;;;;;;8.98;2.30;;;17.20;99.90;;;;;;5039253;28;20036;-71
2021/10/05 08:56:51;;;;;;;8.82;1.58;;;17.20;99.90;;;;;;5040917;28;20056;-70
2021/10/05 08:59:56;;;;;;;9.43;1.92;;;17.20;99.90;;;;;;5041117;28;20384;-71
2021/10/05 09:03:00;;;;;;;13.98;2.00;;;17.00;99.90;;;;;;5043140;28;20030;-71
2021/10/05 09:06:12;;;;;;;6.45;1.95;;;16.80;99.90;;;;;;5044612;28;20487;-71
2021/10/05 09:09:19;;;;;;;6.63;1.77;;;16.90;99.90;;;;;;5041958;28;20049;-71
2021/10/05 09:12:25;;;;;;;15.38;2.05;;;16.80;99.90;;;;;;5039694;28;20541;-71
2021/10/05 09:15:30;;;;;;;7.72;2.05;;;16.80;99.90;;;;;;5039395;28;20048;-71
2021/10/05 09:18:36;;;;;;;8.57;1.58;;;16.80;99.90;;;;;;5039253;28;20515;-71
2021/10/05 09:21:54;;;;;;;9.90;1.70;;;17.10;99.90;;;;;;5046951;28;20044;-71
2021/10/05 09:24:59;;;;;;;6.15;1.40;;;17.30;99.90;;;;;;5045773;28;20391;-71
2021/10/05 09:28:33;;;;;;;8.50;1.70;;;17.40;99.90;;;;;;5040876;28;20048;-71
2021/10/05 09:31:57;;;;;;;9.30;1.60;;;17.30;99.90;;;;;;5039220;28;20040;-71
2021/10/05 09:35:03;;;;;;;11.93;2.40;;;17.30;99.90;;;;;;5044489;28;20037;-72
2021/10/05 09:38:16;;;;;;;4.15;1.40;;;17.20;99.90;;;;;;5046145;28;20036;-72
2021/10/05 09:41:20;;;;;;;10.40;1.65;;;17.10;99.90;;;;;;5042151;28;20494;-71
2021/10/05 09:44:25;;;;;;;12.02;2.13;;;17.30;99.90;;;;;;5042297;28;20048;-71
2021/10/05 09:47:30;;;;;;;11.55;1.67;;;17.30;99.90;;;;;;5038899;28;20048;-71
2021/10/05 09:50:35;;;;;;;14.63;1.80;;;17.30;99.90;;;;;;5039005;28;20048;-71
2021/10/05 09:53:40;;;;;;;13.48;2.22;;;17.40;99.90;;;;;;5034894;28;20043;-71
2021/10/05 09:56:45;;;;;;;10.52;1.70;;;17.60;99.90;;;;;;5037128;28;20040;-71
2021/10/05 09:59:48;;;;;;;9.15;1.55;;;17.80;99.90;;;;;;5037786;28;20049;-71
2021/10/05 10:02:53;;;;;;;17.45;2.85;;;18.00;99.90;;;;;;5042238;28;20031;-71
2021/10/05 10:05:59;;;;;;;12.57;1.98;;;18.30;99.90;;;;;;5044174;28;20388;-71
2021/10/05 10:09:06;;;;;;;12.25;1.52;;;18.40;99.90;;;;;;5040727;28;20043;-71
2021/10/05 10:12:11;;;;;;;11.52;1.83;;;18.30;99.90;;;;;;5041598;28;20060;-71
2021/10/05 10:15:16;;;;;;;14.40;1.90;;;18.80;99.90;;;;;;5054414;28;20053;-71
2021/10/05 10:18:22;;;;;;;12.02;2.42;;;19.30;99.90;;;;;;5044871;28;20044;-71
2021/10/05 10:21:29;;;;;;;11.52;1.80;;;19.60;99.90;;;;;;5038406;28;20056;-71
2021/10/05 10:24:51;;;;;;;5.45;1.70;;;20.10;99.90;;;;;;5041577;28;20044;-71
2021/10/05 10:27:58;;;;;;;12.82;2.10;;;22.10;99.90;;;;;;5038692;28;20048;-72
2021/10/05 10:31:06;;;;;;;8.88;2.10;;;24.90;99.90;;;;;;5040503;28;20048;-71
2021/10/05 10:34:24;;;;;;;12.15;2.05;;;25.80;99.90;;;;;;5046135;28;20044;-71
2021/10/05 10:37:49;;;;;;;11.48;2.15;;;24.50;99.90;;;;;;5037750;28;20052;-71
2021/10/05 10:40:53;;;;;;;10.05;2.55;;;24.20;99.90;;;;;;5046821;28;20035;-71
2021/10/05 10:44:06;;;;;;;9.00;2.10;;;23.80;99.90;;;;;;5043272;28;20037;-71
2021/10/05 10:47:15;;;;;;;11.35;2.38;;;23.80;99.90;;;;;;5041284;28;20052;-71
2021/10/05 10:50:19;;;;;;;11.65;2.05;;;24.00;99.90;;;;;;5040777;28;20040;-71
2021/10/05 10:53:39;;;;;;;7.97;1.60;;;24.20;99.90;;;;;;5038351;28;20395;-71
2021/10/05 10:56:45;;;;;;;7.28;1.77;;;28.90;99.90;;;;;;5040975;28;20760;-71
2021/10/05 10:59:49;;;;;;;12.48;1.55;;;28.20;99.90;;;;;;5039789;28;20037;-71
2021/10/05 11:03:01;;;;;;;7.97;2.03;;;28.10;99.90;;;;;;5047154;28;20040;-72
2021/10/05 11:06:16;;;;;;;5.40;1.70;;;29.40;99.90;;;;;;5049780;28;20044;-71
2021/10/05 11:09:23;;;;;;;8.90;1.55;;;29.60;99.20;;;;;;5043484;28;20119;-71
2021/10/05 11:12:28;;;;;;;11.07;2.15;;;27.60;99.90;;;;;;5049191;28;20044;-71
2021/10/05 11:15:41;;;;;;;10.18;2.08;;;25.80;99.90;;;;;;5014938;28;20040;-71
2021/10/05 11:18:46;;;;;;;11.73;1.98;;;24.40;99.90;;;;;;5044813;28;20400;-74
2021/10/05 11:22:03;;;;;;;12.23;2.75;;;23.10;99.90;;;;;;5049130;28;20032;-74
2021/10/05 11:25:07;;;;;;;11.95;2.00;;;22.60;99.90;;;;;;5047003;28;20044;-74
2021/10/05 11:28:13;;;;;;;6.95;1.60;;;25.10;99.90;;;;;;5049976;28;20052;-73
2021/10/05 11:31:18;;;;;;;8.02;1.90;;;26.00;99.90;;;;;;5047066;28;20387;-74
2021/10/05 11:34:22;;;;;;;10.05;2.17;;;28.80;99.90;;;;;;5043071;28;20044;-74
2021/10/05 11:37:26;;;;;;;11.05;2.28;;;29.90;96.80;;;;;;5045962;28;20044;-75
2021/10/05 11:40:30;;;;;;;8.90;1.77;;;29.30;97.00;;;;;;5048608;28;20068;-75
2021/10/05 11:43:38;;;;;;;12.98;2.08;;;27.60;99.90;;;;;;5045064;28;20038;-74
2021/10/05 11:47:04;;;;;;;8.35;2.15;;;24.90;99.90;;;;;;5041570;28;20040;-74
2021/10/05 11:50:10;;;;;;;8.13;2.35;;;23.50;99.90;;;;;;5049201;28;20036;-74
2021/10/05 11:53:15;;;;;;;10.82;2.28;;;25.00;99.90;;;;;;5044446;28;20037;-73
2021/10/05 11:56:23;;;;;;;12.55;2.45;;;23.80;99.90;;;;;;5050534;28;20640;-73
2021/10/05 11:59:32;;;;;;;9.25;2.25;;;24.90;99.90;;;;;;5037599;28;20049;-73
2021/10/05 12:02:41;;;;;;;11.55;2.22;;;26.20;99.90;;;;;;5047422;28;20391;-73
2021/10/05 12:05:45;;;;;;;8.75;2.00;;;24.80;99.90;;;;;;5046175;28;20553;-73
2021/10/05 12:08:49;;;;;;;8.77;2.25;;;24.10;99.90;;;;;;5044113;28;20382;-73
2021/10/05 12:12:04;;;;;;;10.27;2.17;;;24.70;99.90;;;;;;5045116;28;20390;-74
2021/10/05 12:15:15;;;;;;;9.50;2.13;;;25.70;99.90;;;;;;5047910;28;20036;-74
2021/10/05 12:18:20;;;;;;;8.48;2.05;;;26.30;99.90;;;;;;5038722;28;20044;-74
2021/10/05 12:21:24;;;;;;;8.93;1.90;;;27.90;99.90;;;;;;5045157;28;20029;-72
2021/10/05 12:25:13;;;;;;;16.23;2.67;;;31.00;97.20;;;;;;5041608;28;20025;-74
2021/10/05 12:28:17;;;;;;;11.18;2.15;;;29.60;98.00;;;;;;5044838;28;20056;-73
2021/10/05 12:31:21;;;;;;;9.00;1.90;;;27.30;99.60;;;;;;5044298;28;20628;-73
2021/10/05 12:34:39;;;;;;;13.30;2.13;;;25.10;99.90;;;;;;5050559;28;20235;-73
2021/10/05 12:37:44;;;;;;;11.15;2.08;;;24.30;99.90;;;;;;5043021;28;20036;-73
2021/10/05 12:40:59;;;;;;;10.35;2.38;;;23.70;99.90;;;;;;5044608;28;20056;-74
2021/10/05 12:44:20;;;;;;;8.85;2.25;;;22.20;99.90;;;;;;5046857;28;20033;-74
2021/10/05 12:47:24;;;;;;;11.10;1.63;;;22.20;99.90;;;;;;5047136;28;20044;-74
2021/10/05 12:50:32;;;;;;;9.00;1.80;;;25.10;99.90;;;;;;5044069;28;20044;-72
2021/10/05 12:53:42;;;;;;;6.88;1.75;;;29.00;99.90;;;;;;5041695;28;20046;-74
2021/10/05 12:56:48;;;;;;;8.50;2.20;;;30.90;95.80;;;;;;5046337;28;20037;-74
2021/10/05 12:59:53;;;;;;;7.88;1.95;;;30.20;96.60;;;;;;5046351;28;20044;-74
2021/10/05 13:02:57;;;;;;;7.00;1.60;;;31.70;95.70;;;;;;5041530;28;20369;-74
2021/10/05 13:06:02;;;;;;;7.47;1.60;;;31.10;92.40;;;;;;5039681;28;20620;-73
2021/10/05 13:09:08;;;;;;;14.50;2.17;;;28.60;93.80;;;;;;5041605;28;20048;-73
2021/10/05 13:12:13;;;;;;;8.07;1.52;;;27.30;96.20;;;;;;5045003;28;20063;-73
2021/10/05 13:15:17;;;;;;;7.88;1.80;;;27.70;98.50;;;;;;5046117;28;20033;-73
2021/10/05 13:18:22;;;;;;;6.22;1.90;;;28.40;97.60;;;;;;5040205;28;20045;-73
2021/10/05 13:21:27;;;;;;;8.10;1.75;;;28.20;94.40;;;;;;5037822;28;20045;-73
2021/10/05 13:24:31;;;;;;;7.22;1.80;;;28.90;97.00;;;;;;5040174;28;20036;-73
2021/10/05 13:27:38;;;;;;;4.90;1.42;;;31.30;93.80;;;;;;5039797;28;20039;-74
2021/10/05 13:30:42;;;;;;;7.68;1.65;;;33.10;92.60;;;;;;5040147;28;20052;-72
2021/10/05 13:33:46;;;;;;;7.10;1.33;;;34.60;89.60;;;;;;5038407;28;20025;-72
2021/10/05 13:36:50;;;;;;;4.22;1.10;;;34.80;87.20;;;;;;5043179;28;20049;-70
2021/10/05 13:39:54;;;;;;;6.70;1.60;;;33.50;87.60;;;;;;5039103;28;20524;-72
2021/10/05 13:42:59;;;;;;;5.28;1.40;;;31.40;90.60;;;;;;5042722;28;20029;-71
2021/10/05 13:46:03;;;;;;;5.40;1.40;;;29.60;91.50;;;;;;5045125;28;20054;-72
2021/10/05 13:49:07;;;;;;;7.28;1.38;;;28.90;92.90;;;;;;5041908;28;20112;-71
2021/10/05 13:52:11;;;;;;;7.78;1.55;;;29.60;91.60;;;;;;5040301;28;20037;-70
2021/10/05 13:55:15;;;;;;;6.70;1.40;;;31.00;89.00;;;;;;5041574;28;20048;-72
2021/10/05 13:58:20;;;;;;;11.35;1.33;;;29.50;90.00;;;;;;5044586;28;20053;-72
2021/10/05 14:01:24;;;;;;;5.25;0.80;;;29.80;91.70;;;;;;5041534;28;20052;-71
2021/10/05 14:04:29;;;;;;;6.30;1.00;;;30.70;86.60;;;;;;5041339;28;20036;-72
2021/10/05 14:07:33;;;;;;;3.67;0.90;;;31.30;85.00;;;;;;5039850;28;20041;-72
2021/10/05 14:10:37;;;;;;;12.43;1.92;;;31.30;79.90;;;;;;5038818;28;20036;-71
2021/10/05 14:13:40;;;;;;;4.45;0.95;;;31.30;80.70;;;;;;5039441;28;20041;-70
2021/10/05 14:16:44;;;;;;;5.05;1.05;;;30.60;80.70;;;;;;5030986;28;20038;-68
2021/10/05 14:19:49;;;;;;;3.33;1.10;;;27.10;79.40;;;;;;5041521;28;20026;-70
2021/10/05 14:22:54;;;;;;;3.67;0.90;;;26.20;83.30;;;;;;5042754;28;20048;-70
2021/10/05 14:25:59;;;;;;;2.97;0.88;;;27.00;83.80;;;;;;5040232;28;20048;-67
2021/10/05 14:29:03;;;;;;;6.22;0.82;;;25.70;82.00;;;;;;5039179;28;20033;-70
2021/10/05 14:32:07;;;;;;;5.35;1.40;;;25.60;85.20;;;;;;5041508;28;20040;-70
2021/10/05 14:35:12;;;;;;;2.97;1.00;;;25.50;87.70;;;;;;5036124;28;20513;-70
2021/10/05 14:38:17;;;;;;;2.78;1.10;;;26.00;85.80;;;;;;5042641;28;20043;-70
2021/10/05 14:41:21;;;;;;;7.55;1.17;;;24.80;88.10;;;;;;5041511;28;20055;-69
2021/10/05 14:44:25;;;;;;;7.78;1.02;;;23.90;89.70;;;;;;5038195;28;20043;-70
2021/10/05 14:47:29;;;;;;;3.28;0.85;;;22.90;90.30;;;;;;5040240;28;20046;-70
2021/10/05 14:50:34;;;;;;;5.03;1.15;;;22.40;91.50;;;;;;5041550;28;20044;-70
2021/10/05 14:53:39;;;;;;;6.07;1.00;;;22.40;93.40;;;;;;5040955;28;20502;-70
2021/10/05 14:56:44;;;;;;;5.40;1.10;;;22.40;94.00;;;;;;5038753;28;20041;-70
2021/10/05 14:59:49;;;;;;;7.47;1.73;;;22.30;93.50;;;;;;5036096;28;20045;-70
2021/10/05 15:02:53;;;;;;;4.30;0.90;;;22.30;94.60;;;;;;5042708;28;20041;-71
2021/10/05 15:05:57;;;;;;;4.03;1.00;;;22.00;92.80;;;;;;5038594;28;20033;-70
2021/10/05 15:09:01;;;;;;;7.18;1.65;;;22.30;94.50;;;;;;5044446;28;20034;-71
2021/10/05 15:12:05;;;;;;;6.25;1.00;;;23.50;93.00;;;;;;5036494;28;20037;-71
2021/10/05 15:15:11;;;;;;;5.10;1.58;;;24.30;90.80;;;;;;5041156;28;20036;-70
2021/10/05 15:18:16;;;;;;;4.45;0.90;;;24.00;91.50;;;;;;5044464;28;20045;-71
2021/10/05 15:21:20;;;;;;;4.28;0.90;;;23.50;92.00;;;;;;5037772;28;20056;-71
2021/10/05 15:24:23;;;;;;;3.13;1.00;;;23.00;92.10;;;;;;5046816;28;20033;-71
2021/10/05 15:27:28;;;;;;;9.13;1.42;;;23.10;93.50;;;;;;5036694;28;20044;-70
2021/10/05 15:30:32;;;;;;;4.05;0.90;;;23.10;92.20;;;;;;5037355;28;20040;-70
2021/10/05 15:33:36;;;;;;;4.47;0.98;;;22.10;92.60;;;;;;5037636;28;20032;-70
2021/10/05 15:36:40;;;;;;;4.97;1.00;;;22.30;93.60;;;;;;5039879;28;20037;-71
2021/10/05 15:39:44;;;;;;;10.73;1.20;;;22.20;93.90;;;;;;5039321;28;20511;-70
2021/10/05 15:42:49;;;;;;;7.70;1.20;;;21.60;93.40;;;;;;5035797;28;20048;-70
2021/10/05 15:45:53;;;;;;;5.65;0.88;;;21.50;93.90;;;;;;5045232;28;20043;-69
2021/10/05 15:48:56;;;;;;;3.00;0.90;;;20.90;93.60;;;;;;5038915;28;20060;-70
2021/10/05 15:52:19;;;;;;;4.22;1.08;;;21.20;94.60;;;;;;5042248;28;20037;-70
2021/10/05 15:55:25;;;;;;;5.57;1.00;;;21.40;95.90;;;;;;5038763;28;20358;-69
2021/10/05 15:58:30;;;;;;;17.60;2.22;;;21.30;95.60;;;;;;5038439;28;20041;-70
2021/10/05 16:01:34;;;;;;;8.35;1.27;;;20.90;96.50;;;;;;5041165;28;20044;-69
2021/10/05 16:04:38;;;;;;;5.93;1.20;;;20.60;97.00;;;;;;5041397;28;20033;-72
2021/10/05 16:07:42;;;;;;;5.65;1.10;;;20.30;98.60;;;;;;5048131;28;20050;-71
2021/10/05 16:10:47;;;;;;;6.60;1.08;;;20.10;99.50;;;;;;5042077;28;20033;-72
2021/10/05 16:13:52;;;;;;;6.60;1.20;;;20.00;99.00;;;;;;5041269;28;20497;-72
2021/10/05 16:16:56;;;;;;;4.70;1.02;;;19.80;99.70;;;;;;5042845;28;20514;-71
2021/10/05 16:20:02;;;;;;;4.97;1.55;;;19.80;98.40;;;;;;5048446;28;20385;-71
2021/10/05 16:23:06;;;;;;;6.57;1.15;;;19.70;98.60;;;;;;5045329;28;20036;-71
2021/10/05 16:26:10;;;;;;;5.63;1.15;;;19.60;99.80;;;;;;5040358;28;20045;-71
2021/10/05 16:29:15;;;;;;;7.40;1.52;;;19.50;99.50;;;;;;5040067;28;20401;-71
2021/10/05 16:32:20;;;;;;;7.03;1.17;;;19.30;99.80;;;;;;5043892;28;20037;-71
2021/10/05 16:35:24;;;;;;;5.05;0.95;;;19.10;99.90;;;;;;5040410;28;20046;-71